Time;durP1;ratioP1;P1;durP2;ratioP2;P2;SDS_P1;SDS_P2;PMS_P1;PMS_P2;Temp;Humidity;BMP_temperature;BMP_pressure;BME280_temperature;BME280_humidity;BME280_pressure;Samples;Min_cycle;Max_cycle;Signal;HPM_P1;HPM_P2
2021/04/11 00:00:35;;;;;;;46.37;27.85;;;;;;;5.97;66.89;100156.27;1610856;88;21537;-83
2021/04/11 00:03:03;;;;;;;42.55;29.18;;;;;;;5.93;66.90;100149.52;1612704;88;21204;-83
2021/04/11 00:05:34;;;;;;;46.58;28.17;;;;;;;5.91;66.93;100140.86;1585738;90;21132;-83
2021/04/11 00:08:01;;;;;;;43.70;28.00;;;;;;;5.87;66.99;100141.97;1611210;88;21202;-83
2021/04/11 00:10:32;;;;;;;44.40;27.77;;;;;;;5.87;67.17;100131.49;1616287;88;21164;-83
2021/04/11 00:12:59;;;;;;;42.48;26.50;;;;;;;5.87;66.83;100135.42;1615682;88;21150;-83
2021/04/11 00:15:26;;;;;;;48.55;29.23;;;;;;;5.86;66.92;100127.20;1613974;88;21140;-83
2021/04/11 00:17:52;;;;;;;40.92;26.02;;;;;;;5.85;66.85;100128.10;1615409;88;21325;-83
2021/04/11 00:20:19;;;;;;;46.23;28.62;;;;;;;5.86;66.75;100120.65;1614093;88;21165;-83
2021/04/11 00:22:46;;;;;;;51.20;29.85;;;;;;;5.85;66.75;100116.31;1615209;87;21216;-83
2021/04/11 00:25:16;;;;;;;45.05;28.02;;;;;;;5.83;66.72;100111.66;1614094;88;21609;-83
2021/04/11 00:27:44;;;;;;;54.35;30.57;;;;;;;5.79;66.80;100110.11;1614014;88;21305;-83
2021/04/11 00:30:12;;;;;;;51.75;31.48;;;;;;;5.75;66.79;100108.13;1612214;88;21531;-83
2021/04/11 00:32:39;;;;;;;50.15;30.75;;;;;;;5.69;66.85;100108.47;1614562;88;21162;-83
2021/04/11 00:35:07;;;;;;;47.50;29.55;;;;;;;5.63;66.85;100110.98;1614181;88;21644;-83
2021/04/11 00:37:33;;;;;;;49.88;30.37;;;;;;;5.55;66.85;100113.17;1612532;88;21177;-83
2021/04/11 00:39:59;;;;;;;51.58;31.07;;;;;;;5.46;67.00;100109.74;1613686;88;21616;-83
2021/04/11 00:42:33;;;;;;;52.20;30.60;;;;;;;5.37;66.92;100112.42;1614458;88;21699;-83
2021/04/11 00:45:32;;;;;;;49.90;30.43;;;;;;;5.29;67.18;100111.98;1615387;88;21132;-83
2021/04/11 00:47:58;;;;;;;53.40;30.72;;;;;;;5.21;67.24;100112.03;1613794;88;21222;-83
2021/04/11 00:50:25;;;;;;;54.20;32.00;;;;;;;5.13;67.25;100109.36;1612946;88;21311;-83
2021/04/11 00:52:52;;;;;;;55.95;32.25;;;;;;;5.12;67.25;100101.58;1584154;90;21184;-83
2021/04/11 00:55:22;;;;;;;63.52;34.58;;;;;;;5.07;67.24;100097.92;1578125;90;21499;-83
2021/04/11 00:57:49;;;;;;;61.92;36.65;;;;;;;5.04;67.18;100094.16;1582708;90;21153;-84
2021/04/11 01:00:16;;;;;;;58.48;36.53;;;;;;;5.01;67.22;100093.02;1583286;90;21197;-84
2021/04/11 01:02:43;;;;;;;58.02;35.90;;;;;;;4.98;67.23;100094.48;1586388;90;21549;-83
2021/04/11 01:05:21;;;;;;;56.92;35.20;;;;;;;4.95;67.27;100102.48;1589221;89;21158;-84
2021/04/11 01:07:49;;;;;;;59.40;37.83;;;;;;;4.91;67.25;100095.27;1579983;89;21683;-83
2021/04/11 01:10:21;;;;;;;60.05;34.98;;;;;;;4.86;67.45;100093.34;1602042;87;21301;-83
2021/04/11 01:12:49;;;;;;;52.25;33.25;;;;;;;4.83;67.38;100083.05;1604574;89;21174;-84
2021/04/11 01:15:20;;;;;;;62.98;36.20;;;;;;;4.80;67.35;100085.82;1610865;88;21163;-83
2021/04/11 01:17:47;;;;;;;58.23;35.90;;;;;;;4.77;67.41;100075.98;1641082;85;21194;-82
2021/04/11 01:20:16;;;;;;;66.70;39.25;;;;;;;4.74;67.40;100077.45;1638865;87;21266;-82
2021/04/11 01:22:50;;;;;;;58.83;34.33;;;;;;;4.72;67.69;100078.02;1637042;87;21172;-82
2021/04/11 01:25:25;;;;;;;57.03;35.43;;;;;;;4.68;67.68;100082.09;1622329;86;21145;-83
2021/04/11 01:27:55;;;;;;;60.10;36.70;;;;;;;4.66;67.65;100077.86;1633658;87;21324;-83
2021/04/11 01:30:34;;;;;;;53.60;32.50;;;;;;;4.65;67.82;100073.57;1637316;87;21124;-83
2021/04/11 01:33:06;;;;;;;50.25;32.67;;;;;;;4.64;67.86;100072.73;1638812;86;21574;-83
2021/04/11 01:35:32;;;;;;;47.13;32.23;;;;;;;4.63;67.91;100074.09;1637660;87;21623;-83
2021/04/11 01:37:59;;;;;;;53.17;36.00;;;;;;;4.60;67.87;100064.64;1639258;87;21194;-83
2021/04/11 01:40:55;;;;;;;53.28;33.40;;;;;;;4.60;68.33;100064.64;1632148;87;21117;-83
2021/04/11 01:43:23;;;;;;;47.48;32.67;;;;;;;4.58;67.87;100056.53;1606634;88;21174;-83
2021/04/11 01:45:50;;;;;;;49.05;32.23;;;;;;;4.55;67.70;100048.38;1625395;88;21593;-83
2021/04/11 01:48:18;;;;;;;49.05;31.77;;;;;;;4.52;67.64;100048.53;1610623;88;21210;-83
2021/04/11 01:50:46;;;;;;;48.42;32.20;;;;;;;4.50;67.77;100051.67;1596900;90;21124;-83
2021/04/11 01:53:14;;;;;;;48.78;30.85;;;;;;;4.46;67.63;100044.46;1625402;88;21160;-83
2021/04/11 01:55:41;;;;;;;53.13;31.25;;;;;;;4.43;67.75;100049.00;1596893;90;21775;-83
2021/04/11 01:58:08;;;;;;;53.25;31.48;;;;;;;4.38;67.80;100043.19;1625476;88;21230;-83
2021/04/11 02:01:07;;;;;;;44.48;28.98;;;;;;;4.33;67.95;100046.02;1596750;90;21312;-83
2021/04/11 02:03:33;;;;;;;48.23;30.65;;;;;;;4.30;67.82;100041.41;1636566;86;21162;-84
2021/04/11 02:06:03;;;;;;;44.85;28.62;;;;;;;4.24;68.17;100039.95;1636863;88;21220;-84
2021/04/11 02:08:32;;;;;;;50.30;30.72;;;;;;;4.17;68.56;100040.72;1636688;88;21213;-84
2021/04/11 02:10:58;;;;;;;50.15;28.95;;;;;;;4.13;68.39;100041.80;1636159;88;21182;-84
2021/04/11 02:13:29;;;;;;;50.45;30.20;;;;;;;4.11;68.58;100033.66;1625389;88;21214;-84
2021/04/11 02:15:58;;;;;;;51.02;30.45;;;;;;;4.06;68.74;100033.91;1625304;87;21169;-83
2021/04/11 02:18:26;;;;;;;54.30;32.25;;;;;;;4.05;68.72;100037.45;1596671;90;21155;-82
2021/04/11 02:20:56;;;;;;;55.23;34.15;;;;;;;4.02;68.83;100032.84;1625398;88;21334;-83
2021/04/11 02:23:25;;;;;;;54.88;35.00;;;;;;;3.99;68.78;100032.53;1596862;90;21310;-82
2021/04/11 02:25:53;;;;;;;55.63;34.35;;;;;;;3.96;68.84;100036.59;1621313;88;21172;-82
2021/04/11 02:28:29;;;;;;;55.03;32.88;;;;;;;3.94;68.46;100035.81;1617238;88;21171;-82
2021/04/11 02:31:18;;;;;;;55.03;34.33;;;;;;;3.91;68.99;100041.19;1617225;89;21705;-82
2021/04/11 02:34:07;;;;;;;55.38;33.08;;;;;;;3.87;69.09;100039.19;1617134;88;22452;-82
2021/04/11 02:36:45;;;;;;;51.80;31.30;;;;;;;3.81;69.48;100038.65;1617213;88;21174;-82
2021/04/11 02:39:20;;;;;;;48.40;31.27;;;;;;;3.76;69.65;100031.90;1619103;88;21093;-82
2021/04/11 02:41:48;;;;;;;47.65;30.85;;;;;;;3.71;69.42;100039.09;1625420;88;22314;-83
2021/04/11 02:44:15;;;;;;;50.95;32.20;;;;;;;3.66;69.71;100038.48;1596888;90;21589;-83
2021/04/11 02:46:43;;;;;;;50.45;31.73;;;;;;;3.62;70.09;100032.17;1625360;88;21563;-83
2021/04/11 02:49:13;;;;;;;51.95;31.97;;;;;;;3.58;70.01;100033.24;1596833;90;21608;-83
2021/04/11 02:51:41;;;;;;;49.00;30.37;;;;;;;3.54;70.12;100035.16;1625338;88;21144;-83
2021/04/11 02:54:14;;;;;;;53.50;31.07;;;;;;;3.52;70.60;100033.07;1600322;89;21273;-83
2021/04/11 02:56:41;;;;;;;49.98;31.15;;;;;;;3.48;70.35;100034.98;1617232;89;21616;-82
2021/04/11 02:59:08;;;;;;;47.03;29.87;;;;;;;3.46;70.43;100026.41;1617331;88;21618;-82
2021/04/11 03:01:42;;;;;;;51.68;31.52;;;;;;;3.44;70.35;100025.62;1595440;89;21162;-82
2021/04/11 03:04:18;;;;;;;47.83;30.05;;;;;;;3.44;70.67;100021.71;1617061;87;21751;-82
2021/04/11 03:06:49;;;;;;;46.18;30.43;;;;;;;3.44;70.63;100027.39;1618485;88;21558;-82
2021/04/11 03:09:20;;;;;;;47.35;29.15;;;;;;;3.44;70.84;100026.09;1596900;90;21164;-85
2021/04/11 03:11:55;;;;;;;49.18;29.65;;;;;;;3.43;70.56;100021.34;1589766;90;21161;-85
2021/04/11 03:14:26;;;;;;;45.30;29.23;;;;;;;3.42;70.42;100014.88;1596929;89;21168;-85
2021/04/11 03:16:52;;;;;;;53.23;31.60;;;;;;;3.39;70.59;100013.28;1625343;88;21238;-85
2021/04/11 03:19:22;;;;;;;57.08;34.33;;;;;;;3.37;70.71;100012.96;1583441;90;21282;-82
2021/04/11 03:21:49;;;;;;;61.68;34.90;;;;;;;3.35;70.83;100013.48;1579817;90;21653;-82
2021/04/11 03:24:15;;;;;;;69.15;36.75;;;;;;;3.32;70.62;100011.02;1580108;90;21158;-82
2021/04/11 03:26:46;;;;;;;68.22;38.55;;;;;;;3.28;70.87;100018.98;1579793;90;21378;-82
2021/04/11 03:29:20;;;;;;;71.00;36.65;;;;;;;3.24;70.83;100017.45;1579988;91;21223;-82
2021/04/11 03:31:55;;;;;;;63.40;38.20;;;;;;;3.20;71.04;100017.21;1580518;90;21206;-83
2021/04/11 03:34:23;;;;;;;60.60;34.73;;;;;;;3.14;70.90;100010.98;1595593;88;21286;-83
2021/04/11 03:36:50;;;;;;;51.42;32.40;;;;;;;3.09;71.08;100009.03;1589819;90;21644;-82
2021/04/11 03:39:16;;;;;;;52.17;31.17;;;;;;;3.05;71.14;100010.94;1596867;90;21148;-83
2021/04/11 03:41:44;;;;;;;52.98;30.02;;;;;;;3.01;71.32;100007.25;1596495;90;21290;-83
2021/04/11 03:44:20;;;;;;;49.18;30.32;;;;;;;2.98;71.17;100007.39;1625481;88;21544;-83
2021/04/11 03:46:54;;;;;;;47.78;29.07;;;;;;;2.97;71.18;100007.02;1583414;90;21626;-83
2021/04/11 03:50:03;;;;;;;47.25;27.60;;;;;;;2.95;71.37;100004.46;1566726;91;21178;-83
2021/04/11 03:52:49;;;;;;;49.30;27.60;;;;;;;2.95;71.52;100001.02;1580132;90;21193;-82
2021/04/11 03:55:20;;;;;;;46.10;29.15;;;;;;;2.94;71.74;99995.42;1580258;91;21204;-83
2021/04/11 03:57:50;;;;;;;40.43;25.70;;;;;;;2.93;71.50;99989.80;1564028;90;21111;-83
2021/04/11 04:00:33;;;;;;;41.20;25.52;;;;;;;2.94;71.85;99986.30;1594103;90;21119;-83
2021/04/11 04:03:11;;;;;;;41.55;26.30;;;;;;;2.96;71.82;99990.97;1590623;89;21759;-82
2021/04/11 04:05:40;;;;;;;36.98;24.57;;;;;;;2.98;72.09;99990.45;1590714;89;21214;-83
2021/04/11 04:08:06;;;;;;;44.80;27.20;;;;;;;3.02;72.14;99993.29;1591315;90;21153;-82
2021/04/11 04:10:47;;;;;;;39.85;23.60;;;;;;;3.03;72.23;99985.42;1591325;90;21207;-82
2021/04/11 04:13:41;;;;;;;40.83;23.98;;;;;;;3.07;72.44;99986.11;1590733;90;21186;-82
2021/04/11 04:16:18;;;;;;;40.28;23.25;;;;;;;3.10;72.65;99978.16;1625455;88;21234;-84
2021/04/11 04:19:24;;;;;;;42.30;23.40;;;;;;;3.15;72.45;99981.83;1624554;87;21156;-84
2021/04/11 04:22:05;;;;;;;41.98;24.23;;;;;;;3.19;72.38;99980.33;1598311;88;21646;-83
2021/04/11 04:24:50;;;;;;;38.53;23.62;;;;;;;3.23;72.60;99981.03;1625518;88;21688;-82
2021/04/11 04:27:27;;;;;;;38.10;24.45;;;;;;;3.27;72.64;99979.48;1591238;90;21100;-82
2021/04/11 04:29:58;;;;;;;37.10;23.30;;;;;;;3.31;72.64;99980.19;1580181;90;21645;-83
2021/04/11 04:32:30;;;;;;;32.48;22.45;;;;;;;3.34;72.76;99984.41;1573363;89;21209;-82
2021/04/11 04:35:13;;;;;;;39.95;24.40;;;;;;;3.35;72.61;99986.94;1579877;90;21237;-82
2021/04/11 04:38:03;;;;;;;40.83;22.95;;;;;;;3.36;72.62;99987.80;1579544;91;21193;-82
2021/04/11 04:40:50;;;;;;;34.10;21.45;;;;;;;3.36;72.88;99987.34;1583373;90;21147;-83
2021/04/11 04:43:21;;;;;;;34.90;22.17;;;;;;;3.38;72.74;99988.09;1596866;89;21112;-83
2021/04/11 04:46:02;;;;;;;31.75;21.30;;;;;;;3.41;72.97;99984.50;1625221;87;21642;-82
2021/04/11 04:48:33;;;;;;;37.10;20.85;;;;;;;3.44;73.13;99983.05;1625293;88;21093;-83
2021/04/11 04:51:10;;;;;;;34.53;20.88;;;;;;;3.49;73.41;99983.69;1621803;88;21339;-83
2021/04/11 04:54:06;;;;;;;34.65;20.20;;;;;;;3.57;73.48;99985.91;1622614;87;21623;-83
2021/04/11 04:56:40;;;;;;;33.83;20.77;;;;;;;3.65;73.39;99988.97;1625096;87;21189;-81
2021/04/11 04:59:12;;;;;;;35.58;21.52;;;;;;;3.73;73.63;99988.98;1625510;87;21615;-82
2021/04/11 05:01:52;;;;;;;35.48;21.57;;;;;;;3.81;73.52;99989.06;1625205;87;21306;-83
2021/04/11 05:04:28;;;;;;;34.75;21.25;;;;;;;3.87;73.52;99990.06;1625655;87;21175;-82
2021/04/11 05:07:05;;;;;;;36.15;22.37;;;;;;;3.93;73.55;99987.98;1578660;90;21230;-82
2021/04/11 05:09:57;;;;;;;33.75;21.70;;;;;;;3.97;73.66;99997.81;1579681;89;21129;-82
2021/04/11 05:12:40;;;;;;;33.35;21.77;;;;;;;4.03;73.80;99998.81;1617185;89;21195;-82
2021/04/11 05:15:09;;;;;;;;;;;;;;;4.08;73.77;99993.34;1619646;87;21315;-82
2021/04/11 05:17:38;;;;;;;37.30;21.85;;;;;;;4.11;74.04;99994.02;1617244;88;20233;-82
2021/04/11 05:20:13;;;;;;;32.55;21.20;;;;;;;4.13;74.02;99993.50;1609940;88;21583;-82
2021/04/11 05:23:06;;;;;;;34.88;19.52;;;;;;;4.18;73.98;99999.81;1598338;90;21161;-82
2021/04/11 05:25:40;;;;;;;35.90;20.90;;;;;;;4.24;74.25;99998.16;1598606;90;21177;-82
2021/04/11 05:28:18;;;;;;;33.18;20.20;;;;;;;4.30;74.12;99997.84;1598458;90;21197;-82
2021/04/11 05:31:01;;;;;;;35.68;20.20;;;;;;;4.37;74.10;99995.76;1598316;88;21187;-83
2021/04/11 05:33:27;;;;;;;;;;;;;;;4.43;74.08;99994.98;1605829;88;21130;-83
2021/04/11 05:35:58;;;;;;;37.28;20.30;;;;;;;4.52;74.04;99992.35;1625469;88;20202;-83
2021/04/11 05:38:33;;;;;;;31.05;19.23;;;;;;;4.59;73.93;99996.79;1625106;87;21153;-84
2021/04/11 05:41:13;;;;;;;34.90;20.60;;;;;;;4.65;73.79;99994.70;1625368;87;21173;-84
2021/04/11 05:43:58;;;;;;;30.23;20.52;;;;;;;4.74;73.71;99997.73;1625377;88;21181;-83
2021/04/11 05:46:42;;;;;;;34.38;19.12;;;;;;;4.80;73.54;99990.39;1610766;88;21773;-84
2021/04/11 05:49:16;;;;;;;30.30;18.82;;;;;;;4.84;73.52;99991.11;1625575;88;21609;-84
2021/04/11 05:51:56;;;;;;;29.18;18.40;;;;;;;4.88;73.47;99992.15;1596714;90;21179;-84
2021/04/11 05:54:32;;;;;;;27.87;18.70;;;;;;;4.94;73.57;99996.21;1625542;87;21571;-84
2021/04/11 05:57:07;;;;;;;29.70;19.45;;;;;;;4.98;73.55;99991.66;1596610;90;21160;-84
2021/04/11 05:59:37;;;;;;;27.50;18.52;;;;;;;5.02;73.75;99991.39;1624890;87;21184;-84
2021/04/11 06:02:06;;;;;;;29.95;18.90;;;;;;;5.09;73.83;99995.35;1620175;87;21193;-84
2021/04/11 06:04:51;;;;;;;29.82;18.25;;;;;;;5.14;73.88;99997.27;1625513;88;21121;-84
2021/04/11 06:07:41;;;;;;;28.07;19.23;;;;;;;5.23;73.95;99992.44;1625347;88;21109;-84
2021/04/11 06:10:30;;;;;;;31.35;18.35;;;;;;;5.30;74.22;99992.02;1622723;88;21218;-84
2021/04/11 06:13:13;;;;;;;35.25;18.45;;;;;;;5.39;74.42;99982.33;1625247;87;21190;-85
2021/04/11 06:16:13;;;;;;;25.92;15.30;;;;;;;5.54;74.65;99975.86;1619646;88;21722;-85
2021/04/11 06:18:50;;;;;;;23.73;15.80;;;;;;;5.70;74.46;99970.59;1605573;88;21151;-84
2021/04/11 06:21:27;;;;;;;26.12;15.65;;;;;;;5.88;74.07;99965.57;1651751;87;21406;-84
2021/04/11 06:24:22;;;;;;;25.32;15.90;;;;;;;6.03;73.77;99964.70;1636806;87;21193;-84
2021/04/11 06:27:09;;;;;;;27.37;16.25;;;;;;;6.19;73.69;99965.95;1618317;87;21172;-84
2021/04/11 06:29:57;;;;;;;24.40;14.95;;;;;;;6.35;73.43;99967.18;1614975;87;21139;-84
2021/04/11 06:32:25;;;;;;;23.73;15.08;;;;;;;6.51;72.95;99958.72;1625141;87;21228;-84
2021/04/11 06:35:01;;;;;;;26.15;15.78;;;;;;;6.66;72.98;99960.05;1624877;88;21157;-85
2021/04/11 06:37:30;;;;;;;35.90;17.65;;;;;;;6.75;72.73;99967.34;1624905;88;21202;-83
2021/04/11 06:39:57;;;;;;;23.00;14.50;;;;;;;6.85;72.66;99961.89;1596348;90;21155;-83
2021/04/11 06:42:38;;;;;;;23.98;15.18;;;;;;;6.95;72.55;99960.84;1623502;88;21588;-83
2021/04/11 06:45:34;;;;;;;27.25;14.28;;;;;;;7.06;72.46;99959.68;1616795;88;21586;-84
2021/04/11 06:48:31;;;;;;;22.32;14.10;;;;;;;7.20;72.41;99953.54;1625093;88;21113;-84
2021/04/11 06:51:18;;;;;;;21.00;11.30;;;;;;;7.41;72.31;99949.54;1624776;88;21547;-84
2021/04/11 06:54:11;;;;;;;23.77;13.00;;;;;;;7.60;72.23;99941.30;1624979;87;21147;-85
2021/04/11 06:57:05;;;;;;;17.10;9.10;;;;;;;7.83;71.47;99940.21;1621917;87;21379;-84
2021/04/11 06:59:55;;;;;;;17.73;8.85;;;;;;;8.11;70.80;99933.45;1611550;87;21289;-84
2021/04/11 07:02:58;;;;;;;19.50;8.38;;;;;;;8.44;70.41;99936.05;1623037;87;21179;-84
2021/04/11 07:05:49;;;;;;;15.93;7.90;;;;;;;8.73;68.97;99934.48;1622668;88;21188;-85
2021/04/11 07:08:22;;;;;;;10.18;6.70;;;;;;;9.01;68.67;99934.64;1624605;88;21180;-84
2021/04/11 07:11:21;;;;;;;12.70;6.70;;;;;;;9.29;67.20;99930.38;1619844;86;21213;-84
2021/04/11 07:14:30;;;;;;;11.85;6.35;;;;;;;9.50;66.54;99929.73;1619789;88;21179;-84
2021/04/11 07:17:19;;;;;;;13.45;7.53;;;;;;;9.71;66.39;99929.94;1616850;88;21198;-85
2021/04/11 07:20:28;;;;;;;11.33;5.37;;;;;;;9.92;66.08;99924.34;1616467;88;21214;-85
2021/04/11 07:23:18;;;;;;;11.05;5.78;;;;;;;10.11;65.05;99927.74;1622167;88;21135;-84
2021/04/11 07:26:04;;;;;;;10.48;5.55;;;;;;;10.35;64.15;99924.19;1598993;90;21375;-84
2021/04/11 07:28:51;;;;;;;12.85;5.97;;;;;;;10.53;63.28;99926.72;1600994;88;21598;-84
2021/04/11 07:31:58;;;;;;;12.68;5.72;;;;;;;10.71;63.62;99928.38;1611363;88;21624;-83
2021/04/11 07:34:35;;;;;;;12.75;5.10;;;;;;;10.87;63.20;99924.03;1622308;88;21233;-84
2021/04/11 07:37:21;;;;;;;10.95;4.75;;;;;;;11.08;62.95;99914.36;1623627;87;21187;-84
2021/04/11 07:40:16;;;;;;;13.30;4.72;;;;;;;11.26;62.27;99922.61;1625050;88;21166;-84
2021/04/11 07:43:07;;;;;;;8.73;4.85;;;;;;;11.44;61.44;99919.76;1624659;88;21239;-84
2021/04/11 07:46:13;;;;;;;12.03;8.08;;;;;;;11.61;60.67;99916.20;1624850;88;21148;-84
2021/04/11 07:49:24;;;;;;;11.48;4.85;;;;;;;11.77;60.95;99919.73;1596549;88;21192;-84
2021/04/11 07:52:15;;;;;;;7.95;3.55;;;;;;;11.92;59.53;99908.73;1621956;88;21159;-84
2021/04/11 07:55:19;;;;;;;7.45;4.33;;;;;;;12.11;57.90;99909.33;1616967;88;21616;-86
2021/04/11 07:58:34;;;;;;;10.35;4.50;;;;;;;12.26;58.01;99903.69;1621340;88;21175;-86
2021/04/11 08:01:17;;;;;;;8.10;4.45;;;;;;;12.42;57.26;99904.03;1622438;88;21590;-84
2021/04/11 08:04:08;;;;;;;10.43;5.08;;;;;;;12.58;58.21;99916.28;1626516;87;21168;-85
2021/04/11 08:07:01;;;;;;;10.00;4.40;;;;;;;12.70;56.08;99908.23;1597578;88;21194;-86
2021/04/11 08:09:53;;;;;;;10.50;5.27;;;;;;;12.80;56.29;99909.95;1674232;85;21133;-84
2021/04/11 08:12:45;;;;;;;8.80;4.00;;;;;;;12.93;55.90;99903.05;1649702;86;21145;-85
2021/04/11 08:15:26;;;;;;;12.63;5.47;;;;;;;13.06;56.36;99907.63;1633441;86;21187;-85
2021/04/11 08:18:32;;;;;;;7.97;4.42;;;;;;;13.20;54.99;99914.83;1650381;86;21647;-86
2021/04/11 08:21:25;;;;;;;8.30;4.85;;;;;;;13.29;54.09;99901.62;1650318;86;21610;-86
2021/04/11 08:24:39;;;;;;;8.65;4.65;;;;;;;13.38;54.52;99901.25;1650660;86;21145;-86
2021/04/11 08:27:58;;;;;;;8.10;4.37;;;;;;;13.48;54.32;99892.80;1650972;85;21631;-87
2021/04/11 08:30:55;;;;;;;9.58;5.20;;;;;;;13.57;54.04;99894.62;1633039;86;21174;-86
2021/04/11 08:33:44;;;;;;;11.30;4.72;;;;;;;13.68;53.69;99893.62;1650127;87;21195;-85
2021/04/11 08:36:51;;;;;;;11.53;5.60;;;;;;;13.78;53.85;99890.45;1653807;85;21306;-86
2021/04/11 08:39:41;;;;;;;11.55;5.55;;;;;;;13.89;53.64;99891.30;1678523;85;21571;-86
2021/04/11 08:43:01;;;;;;;10.63;5.58;;;;;;;14.00;52.09;99891.12;1669915;85;21184;-85
2021/04/11 08:46:09;;;;;;;17.10;7.87;;;;;;;14.07;52.72;99891.72;1595632;88;21622;-86
2021/04/11 08:49:15;;;;;;;7.30;4.33;;;;;;;14.18;51.75;99888.08;1650548;86;21181;-87
2021/04/11 08:52:05;;;;;;;11.88;5.08;;;;;;;14.30;50.14;99886.06;1650862;86;21168;-87
2021/04/11 08:54:48;;;;;;;7.10;2.95;;;;;;;14.43;50.31;99891.87;1648253;86;21777;-87
2021/04/11 08:57:29;;;;;;;6.33;3.50;;;;;;;14.54;48.76;99887.75;1650554;85;21089;-87
2021/04/11 09:00:00;;;;;;;10.23;4.12;;;;;;;14.61;49.73;99885.80;1661871;85;21526;-86
2021/04/11 09:02:56;;;;;;;4.72;3.08;;;;;;;14.70;49.61;99887.08;1641613;87;21200;-87
2021/04/11 09:06:05;;;;;;;5.95;2.50;;;;;;;14.83;49.37;99884.56;1654988;86;21347;-87
2021/04/11 09:08:46;;;;;;;6.47;2.60;;;;;;;14.95;48.37;99881.55;1657562;86;22373;-86
2021/04/11 09:11:29;;;;;;;5.10;3.27;;;;;;;15.08;49.14;99877.20;1629680;86;21194;-87
2021/04/11 09:14:47;;;;;;;6.03;3.30;;;;;;;15.17;48.82;99880.28;1656421;85;21140;-85
2021/04/11 09:17:30;;;;;;;7.20;3.00;;;;;;;15.29;48.17;99879.54;1657531;86;21165;-86
2021/04/11 09:20:24;;;;;;;;;;;;;;;15.37;47.26;99870.33;1658030;86;21168;-86
2021/04/11 09:23:07;;;;;;;5.92;3.77;;;;;;;15.44;47.83;99874.53;1657192;85;20478;-87
2021/04/11 09:25:36;;;;;;;6.22;3.10;;;;;;;15.54;46.77;99876.61;1657075;86;21552;-85
2021/04/11 09:28:36;;;;;;;5.72;3.02;;;;;;;15.58;48.30;99875.30;1634303;86;21141;-86
2021/04/11 09:31:29;;;;;;;6.25;3.75;;;;;;;15.65;47.31;99867.54;1579959;90;21176;-86
2021/04/11 09:34:34;;;;;;;6.03;3.22;;;;;;;15.81;47.42;99859.70;1592069;87;21115;-87
2021/04/11 09:37:43;;;;;;;5.78;2.92;;;;;;;15.91;45.69;99860.43;1644879;87;21188;-86
2021/04/11 09:40:40;;;;;;;6.10;3.10;;;;;;;15.93;45.86;99858.97;1650217;87;21196;-86
2021/04/11 09:43:55;;;;;;;5.25;1.87;;;;;;;15.99;45.59;99861.00;1650210;87;21113;-85
2021/04/11 09:47:03;;;;;;;6.33;3.08;;;;;;;16.08;46.81;99861.86;1650017;86;21183;-86
2021/04/11 09:50:00;;;;;;;6.53;3.00;;;;;;;16.20;47.39;99848.63;1643437;87;21283;-86
2021/04/11 09:53:00;;;;;;;6.83;3.62;;;;;;;16.32;46.81;99846.49;1624322;86;21176;-85
2021/04/11 09:55:47;;;;;;;7.17;2.90;;;;;;;16.47;46.94;99844.07;1640269;87;21156;-87
2021/04/11 09:59:00;;;;;;;6.40;2.83;;;;;;;16.64;46.49;99835.13;1627671;87;21144;-85
2021/04/11 10:01:44;;;;;;;4.30;2.47;;;;;;;16.75;45.90;99831.35;1649265;86;21196;-84
2021/04/11 10:04:48;;;;;;;5.30;2.30;;;;;;;16.82;45.14;99833.72;1641132;87;21193;-86
2021/04/11 10:07:51;;;;;;;3.80;1.95;;;;;;;16.86;45.36;99829.73;1656356;85;21153;-85
2021/04/11 10:10:25;;;;;;;3.77;2.20;;;;;;;16.88;45.47;99826.41;1670872;85;21163;-85
2021/04/11 10:13:29;;;;;;;5.15;1.75;;;;;;;16.94;45.42;99812.41;1637250;87;21501;-85
2021/04/11 10:16:03;;;;;;;3.95;2.02;;;;;;;17.03;45.04;99808.75;1650300;87;21210;-85
2021/04/11 10:19:07;;;;;;;3.92;1.90;;;;;;;17.13;44.48;99804.59;1649716;87;21200;-86
2021/04/11 10:22:01;;;;;;;5.42;3.05;;;;;;;17.18;43.47;99803.61;1650594;87;21143;-85
2021/04/11 10:24:55;;;;;;;4.08;2.30;;;;;;;17.24;43.71;99802.09;1650323;86;21196;-85
2021/04/11 10:27:29;;;;;;;5.10;2.10;;;;;;;17.23;43.27;99802.59;1655881;85;21193;-86
2021/04/11 10:29:57;;;;;;;4.50;2.25;;;;;;;17.28;42.68;99799.45;1674079;85;21120;-86
2021/04/11 10:32:53;;;;;;;2.52;2.17;;;;;;;17.28;43.89;99804.77;1662072;85;21069;-85
2021/04/11 10:35:49;;;;;;;3.83;2.00;;;;;;;17.30;43.30;99794.25;1649652;86;21151;-86
2021/04/11 10:38:25;;;;;;;5.70;2.10;;;;;;;17.35;43.43;99801.27;1645512;86;21228;-85
2021/04/11 10:41:15;;;;;;;3.60;1.85;;;;;;;17.33;43.59;99794.42;1625350;87;21123;-85
2021/04/11 10:44:12;;;;;;;5.05;2.08;;;;;;;17.34;43.99;99804.94;1650690;85;21586;-79
2021/04/11 10:47:08;;;;;;;3.60;2.00;;;;;;;17.40;42.90;99791.92;1655238;85;21192;-80
2021/04/11 10:49:48;;;;;;;6.97;2.62;;;;;;;17.26;42.44;99794.27;1654324;85;21768;-79
2021/04/11 10:53:10;;;;;;;4.17;2.33;;;;;;;17.12;43.42;99790.94;1643571;85;21146;-80
2021/04/11 10:55:50;;;;;;;4.65;2.58;;;;;;;17.03;42.54;99791.93;1650140;86;21191;-81
2021/04/11 10:58:54;;;;;;;2.90;1.85;;;;;;;16.87;43.16;99790.08;1645524;85;21286;-81
2021/04/11 11:01:40;;;;;;;3.55;1.90;;;;;;;16.79;42.72;99797.58;1668853;85;21196;-79
2021/04/11 11:04:43;;;;;;;6.03;2.60;;;;;;;16.63;43.57;99792.19;1670965;85;21669;-81
2021/04/11 11:07:52;;;;;;;5.33;2.83;;;;;;;16.51;43.06;99782.83;1673722;85;21149;-81
2021/04/11 11:10:36;;;;;;;4.47;2.00;;;;;;;16.41;43.39;99789.13;1672279;85;21110;-81
2021/04/11 11:13:40;;;;;;;4.90;2.25;;;;;;;16.31;43.33;99792.92;1665627;85;21151;-80
2021/04/11 11:16:26;;;;;;;5.50;3.12;;;;;;;16.26;43.81;99788.59;1664005;85;21157;-80
2021/04/11 11:19:47;;;;;;;4.53;2.70;;;;;;;16.21;44.28;99791.72;1665769;85;21105;-80
2021/04/11 11:23:00;;;;;;;4.78;2.47;;;;;;;16.17;44.82;99795.20;1666720;85;21229;-80
2021/04/11 11:26:03;;;;;;;4.83;1.85;;;;;;;16.15;43.94;99794.52;1673931;85;21153;-80
2021/04/11 11:29:05;;;;;;;;;;;;;;;16.09;44.36;99796.52;1663647;85;21152;-81
2021/04/11 11:32:18;;;;;;;4.53;2.10;;;;;;;16.03;44.11;99801.64;1662166;85;20233;-81
2021/04/11 11:35:06;;;;;;;7.92;3.25;;;;;;;15.97;44.48;99794.29;1658524;85;21399;-80
2021/04/11 11:38:04;;;;;;;5.97;2.40;;;;;;;15.91;44.69;99800.56;1645411;85;21187;-81
2021/04/11 11:40:55;;;;;;;9.70;4.42;;;;;;;15.89;44.65;99801.71;1642415;86;21152;-80
2021/04/11 11:44:10;;;;;;;10.68;2.75;;;;;;;15.87;45.11;99797.06;1642163;87;21103;-80
2021/04/11 11:46:54;;;;;;;11.10;5.17;;;;;;;15.84;45.17;99794.22;1640379;86;21152;-81
2021/04/11 11:49:53;;;;;;;7.42;3.30;;;;;;;15.80;45.28;99797.36;1671146;85;21215;-80
2021/04/11 11:52:52;;;;;;;12.30;5.92;;;;;;;15.75;45.68;99786.34;1633271;88;21182;-80
2021/04/11 11:55:26;;;;;;;7.08;3.62;;;;;;;15.73;45.22;99786.98;1611124;86;21143;-79
2021/04/11 11:58:26;;;;;;;5.42;2.87;;;;;;;15.72;45.76;99784.83;1657306;85;21152;-80
2021/04/11 12:01:02;;;;;;;5.47;1.70;;;;;;;15.71;45.41;99795.97;1669554;85;21633;-80
2021/04/11 12:03:33;;;;;;;12.28;5.12;;;;;;;15.66;45.42;99785.42;1660622;85;21116;-79
2021/04/11 12:06:26;;;;;;;4.55;2.00;;;;;;;15.63;45.99;99787.06;1668172;84;21169;-79
2021/04/11 12:09:05;;;;;;;;;;;;;;;15.62;46.06;99786.73;1660194;85;21171;-83
2021/04/11 12:11:58;;;;;;;4.85;2.08;;;;;;;15.61;45.99;99783.25;1657935;85;20188;-84
2021/04/11 12:14:35;;;;;;;4.55;2.40;;;;;;;15.60;46.06;99778.93;1670107;85;21111;-84
2021/04/11 12:17:30;;;;;;;3.65;1.90;;;;;;;15.59;46.33;99781.23;1666704;85;21543;-85
2021/04/11 12:20:07;;;;;;;3.45;2.05;;;;;;;15.60;46.49;99777.59;1659378;85;21157;-84
2021/04/11 12:23:00;;;;;;;6.95;3.58;;;;;;;15.58;46.33;99770.77;1670538;85;21160;-83
2021/04/11 12:25:31;;;;;;;5.58;2.33;;;;;;;15.57;46.28;99782.40;1670147;85;21178;-84
2021/04/11 12:28:10;;;;;;;5.17;2.17;;;;;;;15.55;45.73;99762.59;1663046;85;21098;-84
2021/04/11 12:30:40;;;;;;;5.83;2.25;;;;;;;15.54;46.60;99769.41;1661187;85;21622;-86
2021/04/11 12:33:32;;;;;;;5.90;2.20;;;;;;;15.53;46.28;99771.71;1661147;85;21202;-85
2021/04/11 12:36:16;;;;;;;5.20;2.33;;;;;;;15.49;46.55;99767.20;1661022;85;21157;-85
2021/04/11 12:38:55;;;;;;;6.15;3.30;;;;;;;15.46;46.50;99776.36;1665751;85;21105;-83